sensor_id;sensor_type;location;lat;lon;timestamp;temperature;humidity
69715;HTU21D;56981;53.532;49.398;2023-03-11T00:00:17;-1.21;77.85
69715;HTU21D;56981;53.532;49.398;2023-03-11T00:02:45;-1.19;77.72
69715;HTU21D;56981;53.532;49.398;2023-03-11T00:05:24;-1.19;77.48
69715;HTU21D;56981;53.532;49.398;2023-03-11T00:07:50;-1.19;77.88
69715;HTU21D;56981;53.532;49.398;2023-03-11T00:10:28;-1.20;77.34
69715;HTU21D;56981;53.532;49.398;2023-03-11T00:12:55;-1.19;77.62
69715;HTU21D;56981;53.532;49.398;2023-03-11T00:15:21;-1.20;77.08
69715;HTU21D;56981;53.532;49.398;2023-03-11T00:17:48;-1.19;77.05
69715;HTU21D;56981;53.532;49.398;2023-03-11T00:20:21;-1.17;76.73
69715;HTU21D;56981;53.532;49.398;2023-03-11T00:22:47;-1.16;76.22
69715;HTU21D;56981;53.532;49.398;2023-03-11T00:25:14;-1.14;77.08
69715;HTU21D;56981;53.532;49.398;2023-03-11T00:27:40;-1.16;77.16
69715;HTU21D;56981;53.532;49.398;2023-03-11T00:30:06;-1.17;77.02
69715;HTU21D;56981;53.532;49.398;2023-03-11T00:32:33;-1.19;76.92
69715;HTU21D;56981;53.532;49.398;2023-03-11T00:34:59;-1.23;76.75
69715;HTU21D;56981;53.532;49.398;2023-03-11T00:37:25;-1.26;76.70
69715;HTU21D;56981;53.532;49.398;2023-03-11T00:39:51;-1.29;76.92
69715;HTU21D;56981;53.532;49.398;2023-03-11T00:42:17;-1.31;76.90
69715;HTU21D;56981;53.532;49.398;2023-03-11T00:44:43;-1.33;76.95
69715;HTU21D;56981;53.532;49.398;2023-03-11T00:47:12;-1.33;77.05
69715;HTU21D;56981;53.532;49.398;2023-03-11T00:49:38;-1.31;77.08
69715;HTU21D;56981;53.532;49.398;2023-03-11T00:52:05;-1.27;77.28
69715;HTU21D;56981;53.532;49.398;2023-03-11T00:54:31;-1.27;77.18
69715;HTU21D;56981;53.532;49.398;2023-03-11T00:56:57;-1.29;76.85
69715;HTU21D;56981;53.532;49.398;2023-03-11T00:59:23;-1.30;77.28
69715;HTU21D;56981;53.532;49.398;2023-03-11T01:01:50;-1.29;77.82
69715;HTU21D;56981;53.532;49.398;2023-03-11T01:04:16;-1.26;77.18
69715;HTU21D;56981;53.532;49.398;2023-03-11T01:06:42;-1.21;77.34
69715;HTU21D;56981;53.532;49.398;2023-03-11T01:09:08;-1.18;77.50
69715;HTU21D;56981;53.532;49.398;2023-03-11T01:11:34;-1.15;77.40
69715;HTU21D;56981;53.532;49.398;2023-03-11T01:14:00;-1.10;77.71
69715;HTU21D;56981;53.532;49.398;2023-03-11T01:16:26;-1.09;76.98
69715;HTU21D;56981;53.532;49.398;2023-03-11T01:18:52;-1.04;77.11
69715;HTU21D;56981;53.532;49.398;2023-03-11T01:21:18;-1.04;76.92
69715;HTU21D;56981;53.532;49.398;2023-03-11T01:23:44;-1.05;76.59
69715;HTU21D;56981;53.532;49.398;2023-03-11T01:26:10;-1.08;77.02
69715;HTU21D;56981;53.532;49.398;2023-03-11T01:28:36;-1.10;77.08
69715;HTU21D;56981;53.532;49.398;2023-03-11T01:31:02;-1.14;76.79
69715;HTU21D;56981;53.532;49.398;2023-03-11T01:33:28;-1.17;76.80
69715;HTU21D;56981;53.532;49.398;2023-03-11T01:35:57;-1.24;77.06
69715;HTU21D;56981;53.532;49.398;2023-03-11T01:38:23;-1.27;76.90
69715;HTU21D;56981;53.532;49.398;2023-03-11T01:40:50;-1.28;77.42
69715;HTU21D;56981;53.532;49.398;2023-03-11T01:46:17;-1.28;78.35
69715;HTU21D;56981;53.532;49.398;2023-03-11T01:48:52;-1.35;78.23
69715;HTU21D;56981;53.532;49.398;2023-03-11T01:51:43;-1.41;78.02
69715;HTU21D;56981;53.532;49.398;2023-03-11T01:54:13;-1.46;78.42
69715;HTU21D;56981;53.532;49.398;2023-03-11T01:56:43;-1.52;79.38
69715;HTU21D;56981;53.532;49.398;2023-03-11T01:59:13;-1.49;79.52
69715;HTU21D;56981;53.532;49.398;2023-03-11T02:01:47;-1.50;78.75
69715;HTU21D;56981;53.532;49.398;2023-03-11T02:04:15;-1.50;79.40
69715;HTU21D;56981;53.532;49.398;2023-03-11T02:06:41;-1.52;80.23
69715;HTU21D;56981;53.532;49.398;2023-03-11T02:09:08;-1.53;79.91
69715;HTU21D;56981;53.532;49.398;2023-03-11T02:11:34;-1.54;80.30
69715;HTU21D;56981;53.532;49.398;2023-03-11T02:14:02;-1.55;80.70
69715;HTU21D;56981;53.532;49.398;2023-03-11T02:16:29;-1.59;80.05
69715;HTU21D;56981;53.532;49.398;2023-03-11T02:18:58;-1.61;79.94
69715;HTU21D;56981;53.532;49.398;2023-03-11T02:21:29;-1.64;80.10
69715;HTU21D;56981;53.532;49.398;2023-03-11T02:24:18;-1.65;80.71
69715;HTU21D;56981;53.532;49.398;2023-03-11T02:27:09;-1.69;81.14
69715;HTU21D;56981;53.532;49.398;2023-03-11T02:29:37;-1.70;79.37
69715;HTU21D;56981;53.532;49.398;2023-03-11T02:32:06;-1.79;79.56
69715;HTU21D;56981;53.532;49.398;2023-03-11T02:34:36;-1.82;79.56
69715;HTU21D;56981;53.532;49.398;2023-03-11T02:37:11;-1.85;79.98
69715;HTU21D;56981;53.532;49.398;2023-03-11T02:39:43;-1.86;79.64
69715;HTU21D;56981;53.532;49.398;2023-03-11T02:42:22;-1.85;79.62
69715;HTU21D;56981;53.532;49.398;2023-03-11T02:45:04;-1.85;79.78
69715;HTU21D;56981;53.532;49.398;2023-03-11T02:47:31;-1.84;79.24
69715;HTU21D;56981;53.532;49.398;2023-03-11T02:49:58;-1.85;79.56
69715;HTU21D;56981;53.532;49.398;2023-03-11T02:52:27;-1.89;79.07
69715;HTU21D;56981;53.532;49.398;2023-03-11T02:54:53;-1.89;78.84
69715;HTU21D;56981;53.532;49.398;2023-03-11T02:57:19;-1.89;78.80
69715;HTU21D;56981;53.532;49.398;2023-03-11T02:59:45;-1.87;78.98
69715;HTU21D;56981;53.532;49.398;2023-03-11T03:02:11;-1.82;79.53
69715;HTU21D;56981;53.532;49.398;2023-03-11T03:04:40;-1.76;79.17
69715;HTU21D;56981;53.532;49.398;2023-03-11T03:07:06;-1.71;78.81
69715;HTU21D;56981;53.532;49.398;2023-03-11T03:09:32;-1.68;77.93
69715;HTU21D;56981;53.532;49.398;2023-03-11T03:11:59;-1.64;77.66
69715;HTU21D;56981;53.532;49.398;2023-03-11T03:14:25;-1.64;77.80
69715;HTU21D;56981;53.532;49.398;2023-03-11T03:16:51;-1.61;77.56
69715;HTU21D;56981;53.532;49.398;2023-03-11T03:19:18;-1.60;77.47
69715;HTU21D;56981;53.532;49.398;2023-03-11T03:21:43;-1.55;76.97
69715;HTU21D;56981;53.532;49.398;2023-03-11T03:24:09;-1.43;77.12
69715;HTU21D;56981;53.532;49.398;2023-03-11T03:26:36;-1.30;77.69
69715;HTU21D;56981;53.532;49.398;2023-03-11T03:29:03;-1.12;75.06
69715;HTU21D;56981;53.532;49.398;2023-03-11T03:31:29;-0.76;73.10
69715;HTU21D;56981;53.532;49.398;2023-03-11T03:33:56;-0.57;72.99
69715;HTU21D;56981;53.532;49.398;2023-03-11T03:36:22;-0.40;71.54
69715;HTU21D;56981;53.532;49.398;2023-03-11T03:38:52;-0.35;71.48
69715;HTU21D;56981;53.532;49.398;2023-03-11T03:41:18;-0.43;72.05
69715;HTU21D;56981;53.532;49.398;2023-03-11T03:43:44;-0.46;72.45
69715;HTU21D;56981;53.532;49.398;2023-03-11T03:46:10;-0.52;72.84
69715;HTU21D;56981;53.532;49.398;2023-03-11T03:48:37;-0.38;72.58
69715;HTU21D;56981;53.532;49.398;2023-03-11T03:51:05;-0.43;73.12
69715;HTU21D;56981;53.532;49.398;2023-03-11T03:53:32;-0.42;73.84
69715;HTU21D;56981;53.532;49.398;2023-03-11T03:56:08;-0.50;72.97
69715;HTU21D;56981;53.532;49.398;2023-03-11T03:58:34;-0.52;73.57
69715;HTU21D;56981;53.532;49.398;2023-03-11T04:01:00;-0.27;73.66
69715;HTU21D;56981;53.532;49.398;2023-03-11T04:03:27;0.40;71.32
69715;HTU21D;56981;53.532;49.398;2023-03-11T04:05:53;1.26;67.28
69715;HTU21D;56981;53.532;49.398;2023-03-11T04:08:19;2.39;63.85
69715;HTU21D;56981;53.532;49.398;2023-03-11T04:10:55;2.38;63.16
69715;HTU21D;56981;53.532;49.398;2023-03-11T04:13:22;2.07;63.89
69715;HTU21D;56981;53.532;49.398;2023-03-11T04:15:48;1.70;66.07
69715;HTU21D;56981;53.532;49.398;2023-03-11T04:18:14;1.88;64.95
69715;HTU21D;56981;53.532;49.398;2023-03-11T04:20:41;2.07;64.58
69715;HTU21D;56981;53.532;49.398;2023-03-11T04:23:07;1.80;65.31
69715;HTU21D;56981;53.532;49.398;2023-03-11T04:25:33;1.45;66.35
69715;HTU21D;56981;53.532;49.398;2023-03-11T04:27:59;1.40;67.17
69715;HTU21D;56981;53.532;49.398;2023-03-11T04:30:25;2.14;65.56
69715;HTU21D;56981;53.532;49.398;2023-03-11T04:32:52;3.15;61.18
69715;HTU21D;56981;53.532;49.398;2023-03-11T04:35:18;3.94;58.94
69715;HTU21D;56981;53.532;49.398;2023-03-11T04:37:44;4.67;56.44
69715;HTU21D;56981;53.532;49.398;2023-03-11T04:40:11;4.95;55.12
69715;HTU21D;56981;53.532;49.398;2023-03-11T04:42:37;5.42;53.99
69715;HTU21D;56981;53.532;49.398;2023-03-11T04:45:05;5.91;52.90
69715;HTU21D;56981;53.532;49.398;2023-03-11T04:47:31;6.01;52.37
69715;HTU21D;56981;53.532;49.398;2023-03-11T04:49:58;5.77;53.30
69715;HTU21D;56981;53.532;49.398;2023-03-11T04:52:24;6.09;52.39
69715;HTU21D;56981;53.532;49.398;2023-03-11T04:54:50;5.97;52.51
69715;HTU21D;56981;53.532;49.398;2023-03-11T04:57:16;5.42;52.72
69715;HTU21D;56981;53.532;49.398;2023-03-11T04:59:42;4.72;55.38
69715;HTU21D;56981;53.532;49.398;2023-03-11T05:02:08;4.58;56.77
69715;HTU21D;56981;53.532;49.398;2023-03-11T05:04:34;5.61;52.87
69715;HTU21D;56981;53.532;49.398;2023-03-11T05:07:00;6.58;50.44
69715;HTU21D;56981;53.532;49.398;2023-03-11T05:09:26;7.15;48.31
69715;HTU21D;56981;53.532;49.398;2023-03-11T05:11:52;6.98;48.39
69715;HTU21D;56981;53.532;49.398;2023-03-11T05:14:18;7.02;48.60
69715;HTU21D;56981;53.532;49.398;2023-03-11T05:16:44;6.80;48.76
69715;HTU21D;56981;53.532;49.398;2023-03-11T05:19:10;7.34;48.72
69715;HTU21D;56981;53.532;49.398;2023-03-11T05:21:58;7.79;47.07
69715;HTU21D;56981;53.532;49.398;2023-03-11T05:24:42;7.43;46.91
69715;HTU21D;56981;53.532;49.398;2023-03-11T05:27:08;7.30;47.40
69715;HTU21D;56981;53.532;49.398;2023-03-11T05:29:34;6.49;48.85
69715;HTU21D;56981;53.532;49.398;2023-03-11T05:32:00;6.22;50.80
69715;HTU21D;56981;53.532;49.398;2023-03-11T05:34:26;6.34;50.03
69715;HTU21D;56981;53.532;49.398;2023-03-11T05:36:52;6.67;49.67
69715;HTU21D;56981;53.532;49.398;2023-03-11T05:39:18;6.67;49.09
69715;HTU21D;56981;53.532;49.398;2023-03-11T05:41:44;6.87;48.45
69715;HTU21D;56981;53.532;49.398;2023-03-11T05:44:10;7.42;47.99
69715;HTU21D;56981;53.532;49.398;2023-03-11T05:46:36;7.42;47.12
69715;HTU21D;56981;53.532;49.398;2023-03-11T05:49:02;7.56;47.02
69715;HTU21D;56981;53.532;49.398;2023-03-11T05:51:28;7.73;45.77
69715;HTU21D;56981;53.532;49.398;2023-03-11T05:53:57;7.85;46.01
69715;HTU21D;56981;53.532;49.398;2023-03-11T05:56:26;7.60;46.41
69715;HTU21D;56981;53.532;49.398;2023-03-11T05:58:52;7.55;47.16
69715;HTU21D;56981;53.532;49.398;2023-03-11T06:01:20;7.64;46.11
69715;HTU21D;56981;53.532;49.398;2023-03-11T06:03:49;8.31;45.51
69715;HTU21D;56981;53.532;49.398;2023-03-11T06:06:15;7.89;45.18
69715;HTU21D;56981;53.532;49.398;2023-03-11T06:08:42;7.47;46.85
69715;HTU21D;56981;53.532;49.398;2023-03-11T06:11:14;6.95;46.97
69715;HTU21D;56981;53.532;49.398;2023-03-11T06:13:41;6.51;47.71
69715;HTU21D;56981;53.532;49.398;2023-03-11T06:16:07;6.31;48.59
69715;HTU21D;56981;53.532;49.398;2023-03-11T06:18:34;6.39;49.13
69715;HTU21D;56981;53.532;49.398;2023-03-11T06:21:01;6.58;48.75
69715;HTU21D;56981;53.532;49.398;2023-03-11T06:23:28;6.70;47.57
69715;HTU21D;56981;53.532;49.398;2023-03-11T06:25:59;6.88;46.77
69715;HTU21D;56981;53.532;49.398;2023-03-11T06:28:29;6.46;48.86
69715;HTU21D;56981;53.532;49.398;2023-03-11T06:30:56;6.45;48.30
69715;HTU21D;56981;53.532;49.398;2023-03-11T06:33:31;6.68;46.99
69715;HTU21D;56981;53.532;49.398;2023-03-11T06:36:01;6.65;47.90
69715;HTU21D;56981;53.532;49.398;2023-03-11T06:38:27;7.37;47.63
69715;HTU21D;56981;53.532;49.398;2023-03-11T06:40:53;7.57;46.62
69715;HTU21D;56981;53.532;49.398;2023-03-11T06:43:23;7.76;46.51
69715;HTU21D;56981;53.532;49.398;2023-03-11T06:45:49;8.15;44.88
69715;HTU21D;56981;53.532;49.398;2023-03-11T06:48:15;8.15;42.73
69715;HTU21D;56981;53.532;49.398;2023-03-11T06:50:41;7.98;43.22
69715;HTU21D;56981;53.532;49.398;2023-03-11T06:53:08;8.01;44.21
69715;HTU21D;56981;53.532;49.398;2023-03-11T06:55:35;8.18;43.02
69715;HTU21D;56981;53.532;49.398;2023-03-11T06:58:05;7.89;43.03
69715;HTU21D;56981;53.532;49.398;2023-03-11T07:01:06;7.47;46.04
69715;HTU21D;56981;53.532;49.398;2023-03-11T07:03:33;7.82;45.77
69715;HTU21D;56981;53.532;49.398;2023-03-11T07:05:59;8.02;45.24
69715;HTU21D;56981;53.532;49.398;2023-03-11T07:08:26;7.82;45.57
69715;HTU21D;56981;53.532;49.398;2023-03-11T07:11:09;7.71;44.41
69715;HTU21D;56981;53.532;49.398;2023-03-11T07:13:37;7.49;46.25
69715;HTU21D;56981;53.532;49.398;2023-03-11T07:16:06;8.36;43.26
69715;HTU21D;56981;53.532;49.398;2023-03-11T07:18:34;8.28;43.45
69715;HTU21D;56981;53.532;49.398;2023-03-11T07:21:02;7.94;44.70
69715;HTU21D;56981;53.532;49.398;2023-03-11T07:23:29;7.45;46.00
69715;HTU21D;56981;53.532;49.398;2023-03-11T07:25:55;7.44;47.02
69715;HTU21D;56981;53.532;49.398;2023-03-11T07:28:24;7.34;46.99
69715;HTU21D;56981;53.532;49.398;2023-03-11T07:30:51;6.91;47.76
69715;HTU21D;56981;53.532;49.398;2023-03-11T07:33:18;6.81;47.89
69715;HTU21D;56981;53.532;49.398;2023-03-11T07:35:45;7.20;46.90
69715;HTU21D;56981;53.532;49.398;2023-03-11T07:38:15;7.23;48.86
69715;HTU21D;56981;53.532;49.398;2023-03-11T07:40:43;6.49;48.12
69715;HTU21D;56981;53.532;49.398;2023-03-11T07:43:10;6.08;47.63
69715;HTU21D;56981;53.532;49.398;2023-03-11T07:45:36;6.08;48.57
69715;HTU21D;56981;53.532;49.398;2023-03-11T07:48:03;6.35;48.79
69715;HTU21D;56981;53.532;49.398;2023-03-11T07:50:29;6.54;48.47
69715;HTU21D;56981;53.532;49.398;2023-03-11T07:52:55;6.46;47.19
69715;HTU21D;56981;53.532;49.398;2023-03-11T07:55:22;6.65;45.98
69715;HTU21D;56981;53.532;49.398;2023-03-11T07:57:48;6.26;45.51
69715;HTU21D;56981;53.532;49.398;2023-03-11T08:00:16;6.14;49.40
69715;HTU21D;56981;53.532;49.398;2023-03-11T08:02:47;5.76;49.82
69715;HTU21D;56981;53.532;49.398;2023-03-11T08:05:23;5.46;49.69
69715;HTU21D;56981;53.532;49.398;2023-03-11T08:07:49;5.26;50.02
69715;HTU21D;56981;53.532;49.398;2023-03-11T08:10:15;5.39;49.71
69715;HTU21D;56981;53.532;49.398;2023-03-11T08:12:41;5.49;50.54
69715;HTU21D;56981;53.532;49.398;2023-03-11T08:15:08;5.43;50.08
69715;HTU21D;56981;53.532;49.398;2023-03-11T08:17:34;5.70;47.77
69715;HTU21D;56981;53.532;49.398;2023-03-11T08:20:00;5.80;49.32
69715;HTU21D;56981;53.532;49.398;2023-03-11T08:22:27;5.84;49.87
69715;HTU21D;56981;53.532;49.398;2023-03-11T08:24:53;5.82;50.77
69715;HTU21D;56981;53.532;49.398;2023-03-11T08:27:21;5.71;52.37
69715;HTU21D;56981;53.532;49.398;2023-03-11T08:29:47;5.69;50.22
69715;HTU21D;56981;53.532;49.398;2023-03-11T08:32:13;5.31;54.12
69715;HTU21D;56981;53.532;49.398;2023-03-11T08:34:39;5.21;52.53
69715;HTU21D;56981;53.532;49.398;2023-03-11T08:37:06;5.42;51.89
69715;HTU21D;56981;53.532;49.398;2023-03-11T08:39:32;5.26;53.61
69715;HTU21D;56981;53.532;49.398;2023-03-11T08:41:59;5.43;50.69
69715;HTU21D;56981;53.532;49.398;2023-03-11T08:44:25;5.40;52.25
69715;HTU21D;56981;53.532;49.398;2023-03-11T08:46:51;5.13;53.02
69715;HTU21D;56981;53.532;49.398;2023-03-11T08:49:17;4.87;51.32
69715;HTU21D;56981;53.532;49.398;2023-03-11T08:51:43;5.32;49.50
69715;HTU21D;56981;53.532;49.398;2023-03-11T08:54:18;5.57;50.34
69715;HTU21D;56981;53.532;49.398;2023-03-11T08:56:45;5.25;51.91
69715;HTU21D;56981;53.532;49.398;2023-03-11T08:59:13;4.96;51.25
69715;HTU21D;56981;53.532;49.398;2023-03-11T09:01:39;4.72;52.43
69715;HTU21D;56981;53.532;49.398;2023-03-11T09:04:07;4.66;51.14
69715;HTU21D;56981;53.532;49.398;2023-03-11T09:06:33;4.39;51.71
69715;HTU21D;56981;53.532;49.398;2023-03-11T09:09:03;4.43;51.63
69715;HTU21D;56981;53.532;49.398;2023-03-11T09:11:32;4.39;52.26
69715;HTU21D;56981;53.532;49.398;2023-03-11T09:14:03;4.03;53.42
69715;HTU21D;56981;53.532;49.398;2023-03-11T09:16:29;3.83;53.07
69715;HTU21D;56981;53.532;49.398;2023-03-11T09:18:55;3.94;53.04
69715;HTU21D;56981;53.532;49.398;2023-03-11T09:21:22;3.98;53.16
69715;HTU21D;56981;53.532;49.398;2023-03-11T09:23:48;4.01;52.99
69715;HTU21D;56981;53.532;49.398;2023-03-11T09:26:14;3.82;51.42
69715;HTU21D;56981;53.532;49.398;2023-03-11T09:28:40;3.78;54.84
69715;HTU21D;56981;53.532;49.398;2023-03-11T09:31:07;3.64;51.40
69715;HTU21D;56981;53.532;49.398;2023-03-11T09:33:38;3.74;52.86
69715;HTU21D;56981;53.532;49.398;2023-03-11T09:36:05;3.89;50.40
69715;HTU21D;56981;53.532;49.398;2023-03-11T09:38:32;3.90;52.37
69715;HTU21D;56981;53.532;49.398;2023-03-11T09:49:40;3.62;54.04
69715;HTU21D;56981;53.532;49.398;2023-03-11T09:52:17;3.55;54.75
69715;HTU21D;56981;53.532;49.398;2023-03-11T09:54:47;3.64;56.29
69715;HTU21D;56981;53.532;49.398;2023-03-11T09:57:32;3.58;55.53
69715;HTU21D;56981;53.532;49.398;2023-03-11T10:00:02;3.48;55.49
69715;HTU21D;56981;53.532;49.398;2023-03-11T10:02:30;3.73;56.01
69715;HTU21D;56981;53.532;49.398;2023-03-11T10:05:02;3.32;55.08
69715;HTU21D;56981;53.532;49.398;2023-03-11T10:07:35;3.26;55.68
69715;HTU21D;56981;53.532;49.398;2023-03-11T10:10:04;3.39;56.19
69715;HTU21D;56981;53.532;49.398;2023-03-11T10:18:35;3.72;54.94
69715;HTU21D;56981;53.532;49.398;2023-03-11T10:24:16;3.56;55.09
69715;HTU21D;56981;53.532;49.398;2023-03-11T10:26:50;3.67;54.10
69715;HTU21D;56981;53.532;49.398;2023-03-11T10:32:19;3.82;51.64
69715;HTU21D;56981;53.532;49.398;2023-03-11T10:35:31;3.85;51.83
69715;HTU21D;56981;53.532;49.398;2023-03-11T10:40:57;4.30;51.91
69715;HTU21D;56981;53.532;49.398;2023-03-11T10:43:31;4.45;54.07
69715;HTU21D;56981;53.532;49.398;2023-03-11T10:46:06;4.52;51.32
69715;HTU21D;56981;53.532;49.398;2023-03-11T10:48:36;4.22;52.17
69715;HTU21D;56981;53.532;49.398;2023-03-11T10:51:15;4.22;53.16
69715;HTU21D;56981;53.532;49.398;2023-03-11T10:53:48;4.07;52.63
69715;HTU21D;56981;53.532;49.398;2023-03-11T10:56:41;3.98;52.25
69715;HTU21D;56981;53.532;49.398;2023-03-11T10:59:33;4.19;53.07
69715;HTU21D;56981;53.532;49.398;2023-03-11T11:02:30;3.91;51.99
69715;HTU21D;56981;53.532;49.398;2023-03-11T11:05:30;3.74;53.10
69715;HTU21D;56981;53.532;49.398;2023-03-11T11:08:20;3.59;54.08
69715;HTU21D;56981;53.532;49.398;2023-03-11T11:10:57;3.38;54.24
69715;HTU21D;56981;53.532;49.398;2023-03-11T11:13:27;3.16;53.84
69715;HTU21D;56981;53.532;49.398;2023-03-11T11:16:02;2.94;54.95
69715;HTU21D;56981;53.532;49.398;2023-03-11T11:18:47;2.76;56.13
69715;HTU21D;56981;53.532;49.398;2023-03-11T11:21:27;2.60;56.26
69715;HTU21D;56981;53.532;49.398;2023-03-11T11:24:24;2.59;58.36
69715;HTU21D;56981;53.532;49.398;2023-03-11T11:27:27;2.66;58.70
69715;HTU21D;56981;53.532;49.398;2023-03-11T11:32:35;2.68;57.39
69715;HTU21D;56981;53.532;49.398;2023-03-11T11:35:11;2.73;58.86
69715;HTU21D;56981;53.532;49.398;2023-03-11T11:37:44;2.60;59.32
69715;HTU21D;56981;53.532;49.398;2023-03-11T11:43:00;2.70;58.27
69715;HTU21D;56981;53.532;49.398;2023-03-11T11:51:46;2.66;57.29
69715;HTU21D;56981;53.532;49.398;2023-03-11T11:54:29;2.54;58.36
69715;HTU21D;56981;53.532;49.398;2023-03-11T11:57:00;2.44;57.84
69715;HTU21D;56981;53.532;49.398;2023-03-11T11:59:34;2.49;58.84
69715;HTU21D;56981;53.532;49.398;2023-03-11T12:02:18;2.60;57.87
69715;HTU21D;56981;53.532;49.398;2023-03-11T12:10:53;2.67;56.69
69715;HTU21D;56981;53.532;49.398;2023-03-11T12:16:30;2.65;59.41
69715;HTU21D;56981;53.532;49.398;2023-03-11T12:21:45;2.72;58.98
69715;HTU21D;56981;53.532;49.398;2023-03-11T12:24:44;2.58;59.88
69715;HTU21D;56981;53.532;49.398;2023-03-11T12:27:43;2.51;60.18
69715;HTU21D;56981;53.532;49.398;2023-03-11T12:30:30;2.40;60.25
69715;HTU21D;56981;53.532;49.398;2023-03-11T12:33:26;2.28;61.99
69715;HTU21D;56981;53.532;49.398;2023-03-11T12:35:56;2.28;61.79
69715;HTU21D;56981;53.532;49.398;2023-03-11T12:50:53;2.09;63.67
69715;HTU21D;56981;53.532;49.398;2023-03-11T12:53:19;2.03;63.02
69715;HTU21D;56981;53.532;49.398;2023-03-11T12:59:08;2.02;63.44
69715;HTU21D;56981;53.532;49.398;2023-03-11T13:07:34;2.08;61.52
69715;HTU21D;56981;53.532;49.398;2023-03-11T13:10:16;2.14;60.83
69715;HTU21D;56981;53.532;49.398;2023-03-11T13:12:50;2.10;60.40
69715;HTU21D;56981;53.532;49.398;2023-03-11T13:31:35;1.91;61.99
69715;HTU21D;56981;53.532;49.398;2023-03-11T13:33:53;1.88;62.58
69715;HTU21D;56981;53.532;49.398;2023-03-11T13:41:40;1.78;63.55
69715;HTU21D;56981;53.532;49.398;2023-03-11T13:46:51;1.57;64.69
69715;HTU21D;56981;53.532;49.398;2023-03-11T13:49:39;1.48;65.05
69715;HTU21D;56981;53.532;49.398;2023-03-11T13:52:18;1.39;66.13
69715;HTU21D;56981;53.532;49.398;2023-03-11T13:55:19;1.35;66.14
69715;HTU21D;56981;53.532;49.398;2023-03-11T13:57:52;1.23;66.62
69715;HTU21D;56981;53.532;49.398;2023-03-11T14:00:21;1.17;67.27
69715;HTU21D;56981;53.532;49.398;2023-03-11T14:02:55;1.10;67.75
69715;HTU21D;56981;53.532;49.398;2023-03-11T14:05:30;1.06;67.56
69715;HTU21D;56981;53.532;49.398;2023-03-11T14:16:14;0.97;68.02
69715;HTU21D;56981;53.532;49.398;2023-03-11T14:18:43;0.90;68.69
69715;HTU21D;56981;53.532;49.398;2023-03-11T14:21:19;0.83;69.16
69715;HTU21D;56981;53.532;49.398;2023-03-11T14:23:50;0.81;68.45
69715;HTU21D;56981;53.532;49.398;2023-03-11T14:26:23;0.80;68.99
69715;HTU21D;56981;53.532;49.398;2023-03-11T14:28:53;0.73;67.49
69715;HTU21D;56981;53.532;49.398;2023-03-11T14:31:32;0.68;69.00
69715;HTU21D;56981;53.532;49.398;2023-03-11T14:34:01;0.62;67.14
69715;HTU21D;56981;53.532;49.398;2023-03-11T14:36:38;0.57;66.43
69715;HTU21D;56981;53.532;49.398;2023-03-11T14:39:04;0.51;65.30
69715;HTU21D;56981;53.532;49.398;2023-03-11T14:41:34;0.48;65.53
69715;HTU21D;56981;53.532;49.398;2023-03-11T14:44:00;0.43;65.92
69715;HTU21D;56981;53.532;49.398;2023-03-11T14:46:28;0.39;66.23
69715;HTU21D;56981;53.532;49.398;2023-03-11T14:48:56;0.37;65.91
69715;HTU21D;56981;53.532;49.398;2023-03-11T14:51:26;0.35;66.62
69715;HTU21D;56981;53.532;49.398;2023-03-11T14:53:58;0.32;67.20
69715;HTU21D;56981;53.532;49.398;2023-03-11T14:56:29;0.30;67.48
69715;HTU21D;56981;53.532;49.398;2023-03-11T15:01:37;0.29;67.57
69715;HTU21D;56981;53.532;49.398;2023-03-11T15:04:13;0.27;67.75
69715;HTU21D;56981;53.532;49.398;2023-03-11T15:06:44;0.23;68.07
69715;HTU21D;56981;53.532;49.398;2023-03-11T15:09:17;0.25;68.03
69715;HTU21D;56981;53.532;49.398;2023-03-11T15:14:34;0.25;64.37
69715;HTU21D;56981;53.532;49.398;2023-03-11T15:19:40;0.28;62.89
69715;HTU21D;56981;53.532;49.398;2023-03-11T15:22:28;0.29;62.85
69715;HTU21D;56981;53.532;49.398;2023-03-11T15:25:00;0.30;63.09
69715;HTU21D;56981;53.532;49.398;2023-03-11T15:27:31;0.29;63.08
69715;HTU21D;56981;53.532;49.398;2023-03-11T15:29:59;0.27;64.07
69715;HTU21D;56981;53.532;49.398;2023-03-11T15:32:42;0.29;63.74
69715;HTU21D;56981;53.532;49.398;2023-03-11T15:37:39;0.24;64.61
69715;HTU21D;56981;53.532;49.398;2023-03-11T15:40:16;0.23;64.72
69715;HTU21D;56981;53.532;49.398;2023-03-11T15:42:43;0.21;65.17
69715;HTU21D;56981;53.532;49.398;2023-03-11T15:45:21;0.18;64.85
69715;HTU21D;56981;53.532;49.398;2023-03-11T15:47:48;0.17;66.04
69715;HTU21D;56981;53.532;49.398;2023-03-11T15:50:25;0.15;66.33
69715;HTU21D;56981;53.532;49.398;2023-03-11T15:52:55;0.12;65.72
69715;HTU21D;56981;53.532;49.398;2023-03-11T15:55:23;0.07;66.79
69715;HTU21D;56981;53.532;49.398;2023-03-11T15:58:01;0.05;66.96
69715;HTU21D;56981;53.532;49.398;2023-03-11T16:00:27;0.04;67.09
69715;HTU21D;56981;53.532;49.398;2023-03-11T16:02:53;0.01;67.26
69715;HTU21D;56981;53.532;49.398;2023-03-11T16:05:22;-0.01;67.85
69715;HTU21D;56981;53.532;49.398;2023-03-11T16:07:48;-0.06;68.39
69715;HTU21D;56981;53.532;49.398;2023-03-11T16:10:17;-0.08;68.65
69715;HTU21D;56981;53.532;49.398;2023-03-11T16:12:43;-0.10;68.55
69715;HTU21D;56981;53.532;49.398;2023-03-11T16:17:53;-0.16;68.91
69715;HTU21D;56981;53.532;49.398;2023-03-11T16:20:22;-0.16;69.35
69715;HTU21D;56981;53.532;49.398;2023-03-11T16:22:51;-0.21;68.71
69715;HTU21D;56981;53.532;49.398;2023-03-11T16:25:28;-0.23;69.00
69715;HTU21D;56981;53.532;49.398;2023-03-11T16:27:55;-0.26;68.71
69715;HTU21D;56981;53.532;49.398;2023-03-11T16:30:23;-0.27;68.94
69715;HTU21D;56981;53.532;49.398;2023-03-11T16:32:49;-0.29;68.99
69715;HTU21D;56981;53.532;49.398;2023-03-11T16:35:15;-0.31;68.89
69715;HTU21D;56981;53.532;49.398;2023-03-11T16:37:41;-0.35;69.20
69715;HTU21D;56981;53.532;49.398;2023-03-11T16:40:13;-0.35;69.53
69715;HTU21D;56981;53.532;49.398;2023-03-11T16:42:40;-0.37;69.33
69715;HTU21D;56981;53.532;49.398;2023-03-11T16:45:06;-0.39;69.11
69715;HTU21D;56981;53.532;49.398;2023-03-11T16:47:32;-0.40;69.43
69715;HTU21D;56981;53.532;49.398;2023-03-11T16:49:58;-0.41;69.01
69715;HTU21D;56981;53.532;49.398;2023-03-11T16:52:24;-0.42;69.14
69715;HTU21D;56981;53.532;49.398;2023-03-11T16:54:50;-0.45;69.22
69715;HTU21D;56981;53.532;49.398;2023-03-11T16:57:16;-0.49;69.35
69715;HTU21D;56981;53.532;49.398;2023-03-11T16:59:43;-0.50;69.06
69715;HTU21D;56981;53.532;49.398;2023-03-11T17:02:10;-0.52;68.84
69715;HTU21D;56981;53.532;49.398;2023-03-11T17:04:36;-0.55;68.77
69715;HTU21D;56981;53.532;49.398;2023-03-11T17:07:06;-0.57;68.64
69715;HTU21D;56981;53.532;49.398;2023-03-11T17:09:33;-0.58;68.59
69715;HTU21D;56981;53.532;49.398;2023-03-11T17:12:00;-0.58;68.94
69715;HTU21D;56981;53.532;49.398;2023-03-11T17:14:27;-0.61;68.79
69715;HTU21D;56981;53.532;49.398;2023-03-11T17:16:54;-0.62;69.14
69715;HTU21D;56981;53.532;49.398;2023-03-11T17:19:20;-0.64;69.02
69715;HTU21D;56981;53.532;49.398;2023-03-11T17:21:46;-0.65;68.98
69715;HTU21D;56981;53.532;49.398;2023-03-11T17:24:12;-0.66;69.33